sensor_id;sensor_type;location;lat;lon;timestamp;pressure;altitude;pressure_sealevel;temperature;humidity
50852;BME280;43953;45.508;-122.806;2023-06-26T00:00:31;100759.09;;;27.05;39.57
50852;BME280;43953;45.508;-122.806;2023-06-26T00:01:03;100761.56;;;27.07;39.89
50852;BME280;43953;45.508;-122.806;2023-06-26T00:01:36;100749.66;;;27.06;39.50
50852;BME280;43953;45.508;-122.806;2023-06-26T00:02:08;100749.34;;;27.08;39.96
50852;BME280;43953;45.508;-122.806;2023-06-26T00:02:39;100723.91;;;26.88;39.79
50852;BME280;43953;45.508;-122.806;2023-06-26T00:03:11;100758.47;;;27.08;39.80
50852;BME280;43953;45.508;-122.806;2023-06-26T00:03:46;100733.56;;;26.99;39.55
50852;BME280;43953;45.508;-122.806;2023-06-26T00:04:18;100756.19;;;27.10;39.62
50852;BME280;43953;45.508;-122.806;2023-06-26T00:04:49;100749.03;;;27.09;39.75
50852;BME280;43953;45.508;-122.806;2023-06-26T00:05:24;100757.00;;;27.11;39.42
50852;BME280;43953;45.508;-122.806;2023-06-26T00:05:59;100751.16;;;27.12;39.95
50852;BME280;43953;45.508;-122.806;2023-06-26T00:06:31;100752.28;;;27.11;39.57
50852;BME280;43953;45.508;-122.806;2023-06-26T00:07:04;100753.59;;;27.14;39.52
50852;BME280;43953;45.508;-122.806;2023-06-26T00:07:36;100753.59;;;27.14;39.61
50852;BME280;43953;45.508;-122.806;2023-06-26T00:08:08;100753.34;;;27.15;39.55
50852;BME280;43953;45.508;-122.806;2023-06-26T00:08:40;100750.56;;;27.15;39.77
50852;BME280;43953;45.508;-122.806;2023-06-26T00:09:12;100730.16;;;27.03;39.58
50852;BME280;43953;45.508;-122.806;2023-06-26T00:09:44;100755.75;;;27.17;39.40
50852;BME280;43953;45.508;-122.806;2023-06-26T00:10:15;100751.03;;;27.17;39.52
50852;BME280;43953;45.508;-122.806;2023-06-26T00:10:47;100753.34;;;27.15;39.75
50852;BME280;43953;45.508;-122.806;2023-06-26T00:11:22;100752.69;;;27.18;39.78
50852;BME280;43953;45.508;-122.806;2023-06-26T00:11:54;100752.69;;;27.18;39.35
50852;BME280;43953;45.508;-122.806;2023-06-26T00:12:25;100747.97;;;27.19;39.40
50852;BME280;43953;45.508;-122.806;2023-06-26T00:12:57;100742.44;;;27.19;39.68
50852;BME280;43953;45.508;-122.806;2023-06-26T00:13:29;100741.94;;;27.17;39.40
50852;BME280;43953;45.508;-122.806;2023-06-26T00:14:01;100736.75;;;27.15;39.47
50852;BME280;43953;45.508;-122.806;2023-06-26T00:14:32;100761.16;;;27.22;39.43
50852;BME280;43953;45.508;-122.806;2023-06-26T00:15:04;100755.63;;;27.22;39.34
50852;BME280;43953;45.508;-122.806;2023-06-26T00:15:36;100754.81;;;27.21;39.71
50852;BME280;43953;45.508;-122.806;2023-06-26T00:16:08;100748.13;;;27.22;39.79
50852;BME280;43953;45.508;-122.806;2023-06-26T00:16:40;100746.53;;;27.21;39.34
50852;BME280;43953;45.508;-122.806;2023-06-26T00:17:13;100751.72;;;27.23;39.68
50852;BME280;43953;45.508;-122.806;2023-06-26T00:17:45;100758.06;;;27.23;39.79
50852;BME280;43953;45.508;-122.806;2023-06-26T00:18:17;100749.44;;;27.25;39.39
50852;BME280;43953;45.508;-122.806;2023-06-26T00:18:49;100745.03;;;27.24;39.40
50852;BME280;43953;45.508;-122.806;2023-06-26T00:19:20;100751.06;;;27.26;39.35
50852;BME280;43953;45.508;-122.806;2023-06-26T00:19:52;100745.88;;;27.25;39.42
50852;BME280;43953;45.508;-122.806;2023-06-26T00:20:24;100750.25;;;27.26;39.36
50852;BME280;43953;45.508;-122.806;2023-06-26T00:20:56;100749.13;;;27.27;39.76
50852;BME280;43953;45.508;-122.806;2023-06-26T00:21:28;100722.03;;;27.06;39.41
50852;BME280;43953;45.508;-122.806;2023-06-26T00:21:59;100747.16;;;27.27;39.71
50852;BME280;43953;45.508;-122.806;2023-06-26T00:22:31;100752.38;;;27.29;39.72
50852;BME280;43953;45.508;-122.806;2023-06-26T00:23:03;100748.47;;;27.30;39.72
50852;BME280;43953;45.508;-122.806;2023-06-26T00:23:38;100746.84;;;27.29;39.50
50852;BME280;43953;45.508;-122.806;2023-06-26T00:24:10;100743.78;;;27.30;39.82
50852;BME280;43953;45.508;-122.806;2023-06-26T00:24:42;100750.94;;;27.31;39.42
50852;BME280;43953;45.508;-122.806;2023-06-26T00:25:16;100742.94;;;27.30;39.46
50852;BME280;43953;45.508;-122.806;2023-06-26T00:25:47;100742.94;;;27.30;39.79
50852;BME280;43953;45.508;-122.806;2023-06-26T00:26:19;100740.69;;;27.32;39.57
50852;BME280;43953;45.508;-122.806;2023-06-26T00:26:51;100745.06;;;27.33;39.58
50852;BME280;43953;45.508;-122.806;2023-06-26T00:27:22;100743.16;;;27.33;39.74
50852;BME280;43953;45.508;-122.806;2023-06-26T00:27:54;100743.44;;;27.32;39.82
50852;BME280;43953;45.508;-122.806;2023-06-26T00:28:26;100743.44;;;27.32;39.63
50852;BME280;43953;45.508;-122.806;2023-06-26T00:28:57;100745.56;;;27.35;39.91
50852;BME280;43953;45.508;-122.806;2023-06-26T00:29:29;100757.44;;;27.35;39.65
50852;BME280;43953;45.508;-122.806;2023-06-26T00:30:01;100746.38;;;27.35;39.79
50852;BME280;43953;45.508;-122.806;2023-06-26T00:30:32;100737.28;;;27.35;39.59
50852;BME280;43953;45.508;-122.806;2023-06-26T00:31:05;100748.84;;;27.37;39.60
50852;BME280;43953;45.508;-122.806;2023-06-26T00:31:36;100741.66;;;27.36;39.84
50852;BME280;43953;45.508;-122.806;2023-06-26T00:32:09;100737.63;;;27.33;39.64
50852;BME280;43953;45.508;-122.806;2023-06-26T00:32:40;100743.16;;;27.33;39.80
50852;BME280;43953;45.508;-122.806;2023-06-26T00:33:12;100749.31;;;27.39;39.45
50852;BME280;43953;45.508;-122.806;2023-06-26T00:33:44;100746.53;;;27.39;39.57
50852;BME280;43953;45.508;-122.806;2023-06-26T00:34:16;100753.72;;;27.40;39.57
50852;BME280;43953;45.508;-122.806;2023-06-26T00:34:47;100735.31;;;27.35;39.83
50852;BME280;43953;45.508;-122.806;2023-06-26T00:35:19;100747.38;;;27.39;39.47
50852;BME280;43953;45.508;-122.806;2023-06-26T00:35:51;100722.28;;;27.27;39.61
50852;BME280;43953;45.508;-122.806;2023-06-26T00:36:23;100745.44;;;27.40;39.73
50852;BME280;43953;45.508;-122.806;2023-06-26T00:36:55;100742.31;;;27.41;39.69
50852;BME280;43953;45.508;-122.806;2023-06-26T00:37:26;100742.03;;;27.43;39.76
50852;BME280;43953;45.508;-122.806;2023-06-26T00:37:58;100740.41;;;27.42;39.89
50852;BME280;43953;45.508;-122.806;2023-06-26T00:38:30;100700.66;;;27.20;39.71
50852;BME280;43953;45.508;-122.806;2023-06-26T00:39:02;100736.16;;;27.44;39.37
50852;BME280;43953;45.508;-122.806;2023-06-26T00:39:34;100744.44;;;27.44;39.37
50852;BME280;43953;45.508;-122.806;2023-06-26T00:40:06;100742.53;;;27.45;39.36
50852;BME280;43953;45.508;-122.806;2023-06-26T00:40:38;100746.91;;;27.46;39.63
50852;BME280;43953;45.508;-122.806;2023-06-26T00:41:10;100742.53;;;27.45;39.51
50852;BME280;43953;45.508;-122.806;2023-06-26T00:41:43;100732.41;;;27.40;39.50
50852;BME280;43953;45.508;-122.806;2023-06-26T00:42:15;100742.53;;;27.45;39.84
50852;BME280;43953;45.508;-122.806;2023-06-26T00:42:47;100743.00;;;27.47;39.73
50852;BME280;43953;45.508;-122.806;2023-06-26T00:43:18;100744.63;;;27.48;39.29
50852;BME280;43953;45.508;-122.806;2023-06-26T00:43:50;100743.00;;;27.47;39.42
50852;BME280;43953;45.508;-122.806;2023-06-26T00:44:22;100741.03;;;27.48;39.31
50852;BME280;43953;45.508;-122.806;2023-06-26T00:44:54;100742.19;;;27.47;39.55
50852;BME280;43953;45.508;-122.806;2023-06-26T00:45:26;100745.13;;;27.50;39.75
50852;BME280;43953;45.508;-122.806;2023-06-26T00:45:57;100748.69;;;27.51;39.83
50852;BME280;43953;45.508;-122.806;2023-06-26T00:46:29;100731.28;;;27.50;39.48
50852;BME280;43953;45.508;-122.806;2023-06-26T00:47:02;100734.56;;;27.52;39.78
50852;BME280;43953;45.508;-122.806;2023-06-26T00:47:34;100736.81;;;27.50;39.34
50852;BME280;43953;45.508;-122.806;2023-06-26T00:48:06;100734.56;;;27.52;39.49
50852;BME280;43953;45.508;-122.806;2023-06-26T00:48:39;100734.56;;;27.52;39.63
50852;BME280;43953;45.508;-122.806;2023-06-26T00:49:11;100736.16;;;27.53;39.35
50852;BME280;43953;45.508;-122.806;2023-06-26T00:49:44;100735.19;;;27.49;39.62
50852;BME280;43953;45.508;-122.806;2023-06-26T00:50:15;100742.19;;;27.55;39.65
50852;BME280;43953;45.508;-122.806;2023-06-26T00:50:48;100733.09;;;27.55;39.35
50852;BME280;43953;45.508;-122.806;2023-06-26T00:51:20;100733.91;;;27.55;39.50
50852;BME280;43953;45.508;-122.806;2023-06-26T00:51:53;100731.94;;;27.56;39.74
50852;BME280;43953;45.508;-122.806;2023-06-26T00:52:25;100733.91;;;27.55;39.40
50852;BME280;43953;45.508;-122.806;2023-06-26T00:52:57;100730.84;;;27.57;39.46
50852;BME280;43953;45.508;-122.806;2023-06-26T00:53:32;100736.38;;;27.57;39.55
50852;BME280;43953;45.508;-122.806;2023-06-26T00:54:04;100728.88;;;27.57;39.36
50852;BME280;43953;45.508;-122.806;2023-06-26T00:54:36;100730.84;;;27.57;39.53
50852;BME280;43953;45.508;-122.806;2023-06-26T00:55:09;100725.31;;;27.57;39.78
50852;BME280;43953;45.508;-122.806;2023-06-26T00:55:40;100726.13;;;27.57;39.74
50852;BME280;43953;45.508;-122.806;2023-06-26T00:56:13;100735.72;;;27.60;39.36
50852;BME280;43953;45.508;-122.806;2023-06-26T00:56:48;100600.56;;;26.75;39.33
50852;BME280;43953;45.508;-122.806;2023-06-26T00:57:20;100693.53;;;27.37;39.33
50852;BME280;43953;45.508;-122.806;2023-06-26T00:57:52;100733.75;;;27.60;39.64
50852;BME280;43953;45.508;-122.806;2023-06-26T00:58:25;100732.59;;;27.61;39.56
50852;BME280;43953;45.508;-122.806;2023-06-26T00:58:57;100732.59;;;27.61;39.33
50852;BME280;43953;45.508;-122.806;2023-06-26T00:59:28;100729.53;;;27.63;39.36
50852;BME280;43953;45.508;-122.806;2023-06-26T01:00:01;100734.22;;;27.62;39.49
50852;BME280;43953;45.508;-122.806;2023-06-26T01:00:35;100735.88;;;27.63;39.79
50852;BME280;43953;45.508;-122.806;2023-06-26T01:01:06;100726.78;;;27.63;39.59
50852;BME280;43953;45.508;-122.806;2023-06-26T01:01:40;100733.91;;;27.64;39.47
50852;BME280;43953;45.508;-122.806;2023-06-26T01:02:11;100731.97;;;27.64;39.46
50852;BME280;43953;45.508;-122.806;2023-06-26T01:02:43;100731.16;;;27.64;39.74
50852;BME280;43953;45.508;-122.806;2023-06-26T01:03:15;100737.50;;;27.64;39.69
50852;BME280;43953;45.508;-122.806;2023-06-26T01:03:48;100727.25;;;27.65;39.55
50852;BME280;43953;45.508;-122.806;2023-06-26T01:04:24;100709.31;;;27.54;39.59
50852;BME280;43953;45.508;-122.806;2023-06-26T01:05:00;100726.44;;;27.64;39.51
50852;BME280;43953;45.508;-122.806;2023-06-26T01:05:34;100731.66;;;27.66;39.43
50852;BME280;43953;45.508;-122.806;2023-06-26T01:06:06;100725.78;;;27.67;39.48
50852;BME280;43953;45.508;-122.806;2023-06-26T01:06:46;100732.13;;;27.68;39.32
50852;BME280;43953;45.508;-122.806;2023-06-26T01:07:23;100726.59;;;27.68;39.66
50852;BME280;43953;45.508;-122.806;2023-06-26T01:07:57;100724.97;;;27.67;39.48
50852;BME280;43953;45.508;-122.806;2023-06-26T01:08:30;100731.31;;;27.67;39.46
50852;BME280;43953;45.508;-122.806;2023-06-26T01:09:02;100722.72;;;27.69;39.68
50852;BME280;43953;45.508;-122.806;2023-06-26T01:09:34;100726.28;;;27.70;39.52
50852;BME280;43953;45.508;-122.806;2023-06-26T01:10:07;100721.56;;;27.70;39.57
50852;BME280;43953;45.508;-122.806;2023-06-26T01:10:39;100723.19;;;27.71;39.66
50852;BME280;43953;45.508;-122.806;2023-06-26T01:11:12;100726.78;;;27.72;39.37
50852;BME280;43953;45.508;-122.806;2023-06-26T01:11:45;100724.81;;;27.72;39.30
50852;BME280;43953;45.508;-122.806;2023-06-26T01:12:17;100722.06;;;27.72;39.65
50852;BME280;43953;45.508;-122.806;2023-06-26T01:12:48;100723.69;;;27.73;39.58
50852;BME280;43953;45.508;-122.806;2023-06-26T01:13:20;100724.47;;;27.74;39.73
50852;BME280;43953;45.508;-122.806;2023-06-26T01:13:53;100708.22;;;27.63;39.39
50852;BME280;43953;45.508;-122.806;2023-06-26T01:14:26;100715.38;;;27.73;39.59
50852;BME280;43953;45.508;-122.806;2023-06-26T01:14:59;100682.00;;;27.52;39.35
50852;BME280;43953;45.508;-122.806;2023-06-26T01:15:31;100720.59;;;27.75;39.71
50852;BME280;43953;45.508;-122.806;2023-06-26T01:16:04;100709.53;;;27.75;39.27
50852;BME280;43953;45.508;-122.806;2023-06-26T01:16:38;100715.06;;;27.75;39.55
50852;BME280;43953;45.508;-122.806;2023-06-26T01:17:10;100711.16;;;27.76;39.64
50852;BME280;43953;45.508;-122.806;2023-06-26T01:17:45;100723.84;;;27.77;39.37
50852;BME280;43953;45.508;-122.806;2023-06-26T01:18:18;100715.88;;;27.75;39.43
50852;BME280;43953;45.508;-122.806;2023-06-26T01:18:50;100723.56;;;27.78;39.48
50852;BME280;43953;45.508;-122.806;2023-06-26T01:19:27;100711.16;;;27.76;39.09
50852;BME280;43953;45.508;-122.806;2023-06-26T01:20:01;100716.06;;;27.79;39.40
50852;BME280;43953;45.508;-122.806;2023-06-26T01:20:39;100725.47;;;27.78;39.62
50852;BME280;43953;45.508;-122.806;2023-06-26T01:21:14;100717.69;;;27.80;39.66
50852;BME280;43953;45.508;-122.806;2023-06-26T01:21:46;100715.72;;;27.80;39.90
50852;BME280;43953;45.508;-122.806;2023-06-26T01:23:20;100715.72;;;27.80;39.79
50852;BME280;43953;45.508;-122.806;2023-06-26T01:23:58;100723.72;;;27.82;39.80
50852;BME280;43953;45.508;-122.806;2023-06-26T01:24:38;100728.09;;;27.83;39.51
50852;BME280;43953;45.508;-122.806;2023-06-26T01:26:22;100717.03;;;27.83;39.26
50852;BME280;43953;45.508;-122.806;2023-06-26T01:26:54;100715.56;;;27.85;39.51
50852;BME280;43953;45.508;-122.806;2023-06-26T01:27:27;100724.69;;;27.86;39.88
50852;BME280;43953;45.508;-122.806;2023-06-26T01:28:01;100725.53;;;27.86;39.62
50852;BME280;43953;45.508;-122.806;2023-06-26T01:28:34;100719.16;;;27.86;39.75
50852;BME280;43953;45.508;-122.806;2023-06-26T01:29:08;100719.16;;;27.86;39.70
50852;BME280;43953;45.508;-122.806;2023-06-26T01:29:43;100720.78;;;27.87;39.65
50852;BME280;43953;45.508;-122.806;2023-06-26T01:30:16;100728.75;;;27.88;39.98
50852;BME280;43953;45.508;-122.806;2023-06-26T01:30:49;100719.63;;;27.88;39.89
50852;BME280;43953;45.508;-122.806;2023-06-26T01:31:22;100718.84;;;27.87;39.83
50852;BME280;43953;45.508;-122.806;2023-06-26T01:31:55;100714.91;;;27.88;39.84
50852;BME280;43953;45.508;-122.806;2023-06-26T01:32:26;100717.69;;;27.88;40.20
50852;BME280;43953;45.508;-122.806;2023-06-26T01:33:00;100722.09;;;27.89;39.93
50852;BME280;43953;45.508;-122.806;2023-06-26T01:33:34;100717.38;;;27.90;40.04
50852;BME280;43953;45.508;-122.806;2023-06-26T01:34:06;100712.97;;;27.89;40.07
50852;BME280;43953;45.508;-122.806;2023-06-26T01:34:38;100716.56;;;27.89;40.08
50852;BME280;43953;45.508;-122.806;2023-06-26T01:35:11;100721.75;;;27.91;39.75
50852;BME280;43953;45.508;-122.806;2023-06-26T01:35:44;100720.59;;;27.92;40.18
50852;BME280;43953;45.508;-122.806;2023-06-26T01:36:16;100725.34;;;27.92;40.26
50852;BME280;43953;45.508;-122.806;2023-06-26T01:36:48;100725.03;;;27.93;40.33
50852;BME280;43953;45.508;-122.806;2023-06-26T01:37:20;100725.84;;;27.94;40.31
50852;BME280;43953;45.508;-122.806;2023-06-26T01:37:51;100720.13;;;27.90;40.07
50852;BME280;43953;45.508;-122.806;2023-06-26T01:38:23;100723.88;;;27.94;40.35
50852;BME280;43953;45.508;-122.806;2023-06-26T01:38:55;100721.09;;;27.94;40.19
50852;BME280;43953;45.508;-122.806;2023-06-26T01:39:26;100723.88;;;27.94;40.54
50852;BME280;43953;45.508;-122.806;2023-06-26T01:39:58;100731.88;;;27.96;40.49
50852;BME280;43953;45.508;-122.806;2023-06-26T01:40:30;100727.13;;;27.96;40.72
50852;BME280;43953;45.508;-122.806;2023-06-26T01:41:02;100725.50;;;27.95;40.53
50852;BME280;43953;45.508;-122.806;2023-06-26T01:41:35;100725.19;;;27.97;40.63
50852;BME280;43953;45.508;-122.806;2023-06-26T01:42:07;100723.22;;;27.97;40.69
50852;BME280;43953;45.508;-122.806;2023-06-26T01:42:39;100728.75;;;27.97;40.48
50852;BME280;43953;45.508;-122.806;2023-06-26T01:43:34;100720.44;;;27.97;39.86
50852;BME280;43953;45.508;-122.806;2023-06-26T01:44:44;100725.69;;;27.99;40.32
50852;BME280;43953;45.508;-122.806;2023-06-26T01:45:24;100722.56;;;28.00;39.90
50852;BME280;43953;45.508;-122.806;2023-06-26T01:46:06;100720.94;;;27.99;40.15
50852;BME280;43953;45.508;-122.806;2023-06-26T01:47:20;100723.06;;;28.02;40.60
50852;BME280;43953;45.508;-122.806;2023-06-26T01:47:55;100718.84;;;28.05;40.69
50852;BME280;43953;45.508;-122.806;2023-06-26T01:48:38;100727.94;;;28.05;40.58
50852;BME280;43953;45.508;-122.806;2023-06-26T01:50:06;100723.22;;;28.06;39.62
50852;BME280;43953;45.508;-122.806;2023-06-26T01:50:41;100722.06;;;28.07;40.59
50852;BME280;43953;45.508;-122.806;2023-06-26T01:51:17;100718.19;;;28.08;40.48
50852;BME280;43953;45.508;-122.806;2023-06-26T01:51:58;100727.78;;;28.10;40.40
50852;BME280;43953;45.508;-122.806;2023-06-26T01:52:58;100727.78;;;28.10;39.59
50852;BME280;43953;45.508;-122.806;2023-06-26T01:53:38;100700.94;;;27.94;40.38
50852;BME280;43953;45.508;-122.806;2023-06-26T01:54:18;100732.66;;;28.13;40.27
50852;BME280;43953;45.508;-122.806;2023-06-26T01:54:57;100727.94;;;28.14;40.39
50852;BME280;43953;45.508;-122.806;2023-06-26T01:55:39;100728.75;;;28.15;40.13
50852;BME280;43953;45.508;-122.806;2023-06-26T01:56:16;100733.97;;;28.16;40.00
50852;BME280;43953;45.508;-122.806;2023-06-26T01:56:52;100737.53;;;28.17;40.42
50852;BME280;43953;45.508;-122.806;2023-06-26T01:57:26;100728.09;;;28.18;40.64
50852;BME280;43953;45.508;-122.806;2023-06-26T01:57:59;100732.00;;;28.17;40.82
50852;BME280;43953;45.508;-122.806;2023-06-26T01:58:32;100740.78;;;28.19;40.73
50852;BME280;43953;45.508;-122.806;2023-06-26T01:59:05;100728.91;;;28.18;40.59
50852;BME280;43953;45.508;-122.806;2023-06-26T01:59:39;100732.47;;;28.19;40.57
50852;BME280;43953;45.508;-122.806;2023-06-26T02:00:14;100729.72;;;28.19;40.77
50852;BME280;43953;45.508;-122.806;2023-06-26T02:00:49;100735.75;;;28.21;40.75
50852;BME280;43953;45.508;-122.806;2023-06-26T02:01:21;100732.97;;;28.21;40.70
50852;BME280;43953;45.508;-122.806;2023-06-26T02:01:54;100733.78;;;28.21;40.85
50852;BME280;43953;45.508;-122.806;2023-06-26T02:02:25;100732.97;;;28.21;40.71
50852;BME280;43953;45.508;-122.806;2023-06-26T02:02:57;100732.97;;;28.21;40.78
50852;BME280;43953;45.508;-122.806;2023-06-26T02:03:29;100733.47;;;28.23;40.96
50852;BME280;43953;45.508;-122.806;2023-06-26T02:04:01;100735.91;;;28.24;40.83
50852;BME280;43953;45.508;-122.806;2023-06-26T02:04:33;100735.09;;;28.24;40.81
50852;BME280;43953;45.508;-122.806;2023-06-26T02:05:05;100729.88;;;28.22;40.77
50852;BME280;43953;45.508;-122.806;2023-06-26T02:05:37;100737.84;;;28.24;40.63
50852;BME280;43953;45.508;-122.806;2023-06-26T02:06:08;100735.91;;;28.24;40.99
50852;BME280;43953;45.508;-122.806;2023-06-26T02:06:40;100711.19;;;28.10;40.77
50852;BME280;43953;45.508;-122.806;2023-06-26T02:07:12;100736.38;;;28.26;40.70
50852;BME280;43953;45.508;-122.806;2023-06-26T02:07:43;100730.84;;;28.26;40.71
50852;BME280;43953;45.508;-122.806;2023-06-26T02:08:15;100734.44;;;28.27;40.68
50852;BME280;43953;45.508;-122.806;2023-06-26T02:08:47;100736.06;;;28.28;40.54
50852;BME280;43953;45.508;-122.806;2023-06-26T02:09:18;100722.25;;;28.19;40.59
50852;BME280;43953;45.508;-122.806;2023-06-26T02:09:51;100734.13;;;28.28;40.81
50852;BME280;43953;45.508;-122.806;2023-06-26T02:10:22;100734.13;;;28.28;40.75
50852;BME280;43953;45.508;-122.806;2023-06-26T02:10:54;100737.69;;;28.29;40.85
50852;BME280;43953;45.508;-122.806;2023-06-26T02:11:26;100731.66;;;28.27;40.70
50852;BME280;43953;45.508;-122.806;2023-06-26T02:11:57;100734.91;;;28.29;40.45
50852;BME280;43953;45.508;-122.806;2023-06-26T02:12:29;100734.13;;;28.28;40.74
50852;BME280;43953;45.508;-122.806;2023-06-26T02:13:01;100736.22;;;28.31;40.58
50852;BME280;43953;45.508;-122.806;2023-06-26T02:13:32;100739.81;;;28.32;40.53
50852;BME280;43953;45.508;-122.806;2023-06-26T02:14:04;100739.00;;;28.31;40.51
50852;BME280;43953;45.508;-122.806;2023-06-26T02:14:36;100735.88;;;28.33;40.49
50852;BME280;43953;45.508;-122.806;2023-06-26T02:15:08;100736.69;;;28.33;40.63
50852;BME280;43953;45.508;-122.806;2023-06-26T02:15:40;100731.16;;;28.33;40.76
50852;BME280;43953;45.508;-122.806;2023-06-26T02:16:11;100740.31;;;28.34;40.69
50852;BME280;43953;45.508;-122.806;2023-06-26T02:16:43;100732.81;;;28.34;40.88
50852;BME280;43953;45.508;-122.806;2023-06-26T02:17:15;100735.22;;;28.36;40.49
50852;BME280;43953;45.508;-122.806;2023-06-26T02:17:46;100735.22;;;28.36;40.45
50852;BME280;43953;45.508;-122.806;2023-06-26T02:18:19;100739.63;;;28.37;40.92
50852;BME280;43953;45.508;-122.806;2023-06-26T02:18:53;100736.88;;;28.37;40.78
50852;BME280;43953;45.508;-122.806;2023-06-26T02:19:25;100728.38;;;28.33;40.67
50852;BME280;43953;45.508;-122.806;2023-06-26T02:19:58;100738.50;;;28.38;40.56
50852;BME280;43953;45.508;-122.806;2023-06-26T02:20:30;100732.13;;;28.38;40.57
50852;BME280;43953;45.508;-122.806;2023-06-26T02:21:04;100740.94;;;28.40;40.73
50852;BME280;43953;45.508;-122.806;2023-06-26T02:21:35;100742.56;;;28.41;40.56
50852;BME280;43953;45.508;-122.806;2023-06-26T02:22:07;100734.25;;;28.41;40.57
50852;BME280;43953;45.508;-122.806;2023-06-26T02:22:39;100734.25;;;28.41;40.57
50852;BME280;43953;45.508;-122.806;2023-06-26T02:23:10;100743.41;;;28.41;40.40
50852;BME280;43953;45.508;-122.806;2023-06-26T02:23:43;100739.47;;;28.42;40.52
50852;BME280;43953;45.508;-122.806;2023-06-26T02:24:15;100737.84;;;28.41;40.41
50852;BME280;43953;45.508;-122.806;2023-06-26T02:24:47;100735.59;;;28.43;40.37
50852;BME280;43953;45.508;-122.806;2023-06-26T02:25:19;100738.19;;;28.40;39.99
50852;BME280;43953;45.508;-122.806;2023-06-26T02:25:50;100742.25;;;28.42;39.63
50852;BME280;43953;45.508;-122.806;2023-06-26T02:26:22;100732.44;;;28.36;39.90
50852;BME280;43953;45.508;-122.806;2023-06-26T02:26:54;100732.44;;;28.36;39.61
50852;BME280;43953;45.508;-122.806;2023-06-26T02:27:26;100744.34;;;28.45;39.36
50852;BME280;43953;45.508;-122.806;2023-06-26T02:27:57;100741.44;;;28.42;39.43
50852;BME280;43953;45.508;-122.806;2023-06-26T02:28:29;100742.44;;;28.46;39.32
50852;BME280;43953;45.508;-122.806;2023-06-26T02:29:02;100746.00;;;28.46;39.06
50852;BME280;43953;45.508;-122.806;2023-06-26T02:29:34;100724.81;;;28.33;38.86
50852;BME280;43953;45.508;-122.806;2023-06-26T02:30:07;100746.00;;;28.46;39.18
50852;BME280;43953;45.508;-122.806;2023-06-26T02:30:39;100746.00;;;28.46;38.80
50852;BME280;43953;45.508;-122.806;2023-06-26T02:31:11;100734.94;;;28.46;38.59
50852;BME280;43953;45.508;-122.806;2023-06-26T02:31:42;100746.00;;;28.46;38.81
50852;BME280;43953;45.508;-122.806;2023-06-26T02:32:14;100749.56;;;28.47;38.70
50852;BME280;43953;45.508;-122.806;2023-06-26T02:32:46;100751.53;;;28.46;38.79
50852;BME280;43953;45.508;-122.806;2023-06-26T02:33:17;100747.63;;;28.47;38.51
50852;BME280;43953;45.508;-122.806;2023-06-26T02:33:49;100746.00;;;28.46;38.51
50852;BME280;43953;45.508;-122.806;2023-06-26T02:34:21;100743.22;;;28.46;38.41
50852;BME280;43953;45.508;-122.806;2023-06-26T02:34:52;100741.59;;;28.45;38.44
50852;BME280;43953;45.508;-122.806;2023-06-26T02:35:25;100760.31;;;28.48;38.42
50852;BME280;43953;45.508;-122.806;2023-06-26T02:35:56;100752.00;;;28.48;38.63
50852;BME280;43953;45.508;-122.806;2023-06-26T02:36:28;100757.88;;;28.47;38.30
50852;BME280;43953;45.508;-122.806;2023-06-26T02:37:00;100747.97;;;28.46;38.65
50852;BME280;43953;45.508;-122.806;2023-06-26T02:37:31;100743.53;;;28.45;38.53
50852;BME280;43953;45.508;-122.806;2023-06-26T02:38:03;100753.16;;;28.47;38.15
50852;BME280;43953;45.508;-122.806;2023-06-26T02:38:35;100751.19;;;28.48;38.29
50852;BME280;43953;45.508;-122.806;2023-06-26T02:39:07;100753.66;;;28.49;38.43
50852;BME280;43953;45.508;-122.806;2023-06-26T02:39:39;100758.69;;;28.47;38.39
50852;BME280;43953;45.508;-122.806;2023-06-26T02:40:10;100753.16;;;28.47;38.39
50852;BME280;43953;45.508;-122.806;2023-06-26T02:40:42;100755.63;;;28.49;38.23
50852;BME280;43953;45.508;-122.806;2023-06-26T02:41:14;100751.53;;;28.46;38.55
50852;BME280;43953;45.508;-122.806;2023-06-26T02:41:46;100758.69;;;28.47;38.29
50852;BME280;43953;45.508;-122.806;2023-06-26T02:42:18;100757.88;;;28.47;38.03
50852;BME280;43953;45.508;-122.806;2023-06-26T02:42:49;100753.16;;;28.47;38.25
50852;BME280;43953;45.508;-122.806;2023-06-26T02:43:21;100752.66;;;28.45;38.08
50852;BME280;43953;45.508;-122.806;2023-06-26T02:43:53;100759.50;;;28.48;38.25
50852;BME280;43953;45.508;-122.806;2023-06-26T02:44:24;100765.03;;;28.48;38.07
50852;BME280;43953;45.508;-122.806;2023-06-26T02:44:56;100761.47;;;28.47;38.09
50852;BME280;43953;45.508;-122.806;2023-06-26T02:45:28;100764.25;;;28.47;38.17
50852;BME280;43953;45.508;-122.806;2023-06-26T02:46:00;100765.38;;;28.46;38.22
50852;BME280;43953;45.508;-122.806;2023-06-26T02:46:31;100762.28;;;28.48;38.07
50852;BME280;43953;45.508;-122.806;2023-06-26T02:47:03;100762.63;;;28.46;38.07
50852;BME280;43953;45.508;-122.806;2023-06-26T02:47:35;100761.47;;;28.47;38.08
50852;BME280;43953;45.508;-122.806;2023-06-26T02:48:10;100769.78;;;28.47;38.08
50852;BME280;43953;45.508;-122.806;2023-06-26T02:48:42;100757.88;;;28.47;38.22
50852;BME280;43953;45.508;-122.806;2023-06-26T02:49:13;100765.84;;;28.48;38.01
50852;BME280;43953;45.508;-122.806;2023-06-26T02:49:45;100771.41;;;28.48;37.95